Alpental, Washington
Current Conditions -  °F | °C
As of 4:53 AM on Wednesday 22 Oct 2014 (Local Time) from KRNT Reporting Station
Light Rain Light Rain  
Wind Chill: 54°   Ceiling: 4800
Heat Index: 54°   Visibility: 6mi
Dew Point: 53°   Wind: 8mph
Humidity: 97%   Direction: 100°E
Pressure: 29.65"   Gusts: NA
Location:  47.4076°N, 121.414°W
Report Text: KRNT 221153Z AUTO 10007KT 6SM -RA BR OVC048 12/12 A2965 RMK AO2 SLP046 P0006 60010 70012 T01220117 10139 20122 58010
Loading
Personal Weather Stations






























Interactive Weather Map New forecast layout! Learn more

10-Day Weather Forecast

Advertisements
Track Severe Weather on mobile